createdAt,value
2023-01-21T00:00:18.907Z,46.36
2023-01-21T00:01:18.854Z,46.36
2023-01-21T00:02:18.868Z,46.39
2023-01-21T00:03:18.888Z,46.39
2023-01-21T00:04:18.816Z,46.35
2023-01-21T00:05:18.828Z,46.35
2023-01-21T00:06:18.774Z,46.37
2023-01-21T00:07:18.733Z,46.35
2023-01-21T00:08:18.709Z,46.34
2023-01-21T00:09:18.670Z,46.34
2023-01-21T00:10:18.864Z,46.34
2023-01-21T00:11:18.581Z,46.35
2023-01-21T00:12:18.518Z,46.32
2023-01-21T00:13:18.492Z,46.35
2023-01-21T00:14:18.435Z,46.35
2023-01-21T00:15:18.417Z,46.32
2023-01-21T00:16:18.405Z,46.29
2023-01-21T00:17:18.388Z,46.27
2023-01-21T00:18:18.351Z,46.26
2023-01-21T00:19:18.313Z,46.26
2023-01-21T00:20:18.725Z,46.25
2023-01-21T00:21:18.249Z,46.25
2023-01-21T00:22:18.196Z,46.24
2023-01-21T00:23:18.181Z,46.25
2023-01-21T00:24:18.158Z,46.26
2023-01-21T00:25:18.150Z,46.24
2023-01-21T00:26:18.199Z,46.25
2023-01-21T00:27:18.113Z,46.25
2023-01-21T00:28:19.069Z,46.29
2023-01-21T00:29:18.036Z,46.28
2023-01-21T00:30:18.571Z,46.26
2023-01-21T00:31:18.099Z,46.24
2023-01-21T00:32:17.955Z,46.24
2023-01-21T00:33:17.945Z,46.24
2023-01-21T00:34:17.945Z,46.23
2023-01-21T00:35:17.918Z,46.24
2023-01-21T00:36:17.902Z,46.26
2023-01-21T00:37:17.850Z,46.24
2023-01-21T00:38:17.829Z,46.23
2023-01-21T00:39:17.809Z,46.21
2023-01-21T00:40:18.450Z,46.22
2023-01-21T00:41:17.723Z,46.21
2023-01-21T00:42:18.543Z,46.23
2023-01-21T00:43:17.656Z,46.24
2023-01-21T00:44:17.605Z,46.25
2023-01-21T00:45:17.602Z,46.24
2023-01-21T00:46:17.603Z,46.24
2023-01-21T00:47:17.561Z,46.26
2023-01-21T00:48:17.531Z,46.26
2023-01-21T00:49:17.491Z,46.22
2023-01-21T00:50:17.798Z,46.22
2023-01-21T00:51:17.430Z,46.18
2023-01-21T00:52:17.382Z,46.19
2023-01-21T00:53:17.335Z,46.20
2023-01-21T00:54:17.322Z,46.16
2023-01-21T00:55:17.302Z,46.16
2023-01-21T00:56:17.265Z,46.16
2023-01-21T00:57:17.260Z,46.14
2023-01-21T00:58:17.251Z,46.20
2023-01-21T00:59:17.239Z,46.20
2023-01-21T01:00:17.594Z,46.22
2023-01-21T01:01:17.257Z,46.20
2023-01-21T01:02:17.198Z,46.22
2023-01-21T01:03:17.147Z,46.25
2023-01-21T01:04:17.117Z,46.23
2023-01-21T01:05:17.109Z,46.23
2023-01-21T01:06:17.082Z,46.18
2023-01-21T01:07:17.137Z,46.19
2023-01-21T01:08:17.025Z,46.18
2023-01-21T01:09:16.985Z,46.17
2023-01-21T01:10:17.129Z,46.14
2023-01-21T01:11:16.873Z,46.11
2023-01-21T01:12:16.859Z,46.13
2023-01-21T01:13:16.848Z,46.11
2023-01-21T01:14:16.814Z,46.10
2023-01-21T01:15:16.778Z,46.08
2023-01-21T01:16:16.785Z,46.14
2023-01-21T01:17:16.704Z,46.14
2023-01-21T01:18:16.679Z,46.13
2023-01-21T01:19:16.631Z,46.11
2023-01-21T01:20:16.820Z,46.09
2023-01-21T01:21:16.623Z,46.07
2023-01-21T01:22:16.553Z,46.06
2023-01-21T01:23:16.547Z,46.08
2023-01-21T01:24:16.523Z,46.05
2023-01-21T01:25:16.506Z,46.01
2023-01-21T01:26:16.457Z,45.99
2023-01-21T01:27:16.420Z,46.02
2023-01-21T01:28:16.382Z,46.01
2023-01-21T01:29:16.432Z,46.05
2023-01-21T01:30:16.687Z,46.04
2023-01-21T01:31:16.377Z,46.05
2023-01-21T01:32:16.250Z,46.08
2023-01-21T01:33:16.187Z,46.08
2023-01-21T01:34:16.145Z,46.04
2023-01-21T01:35:16.121Z,46.06
2023-01-21T01:36:16.088Z,46.10
2023-01-21T01:37:16.074Z,46.07
2023-01-21T01:38:16.047Z,46.07
2023-01-21T01:39:15.993Z,46.05
2023-01-21T01:40:16.231Z,46.08
2023-01-21T01:41:15.977Z,46.02
2023-01-21T01:42:15.944Z,46.02
2023-01-21T01:43:15.912Z,45.99
2023-01-21T01:44:15.918Z,46.00
2023-01-21T01:45:15.913Z,46.01
2023-01-21T01:46:15.910Z,46.02
2023-01-21T01:47:15.859Z,45.99
2023-01-21T01:48:15.841Z,46.01
2023-01-21T01:49:15.814Z,46.02
2023-01-21T01:50:16.159Z,46.06
2023-01-21T01:51:15.806Z,46.09
2023-01-21T01:52:15.757Z,46.08
2023-01-21T01:53:15.748Z,46.09
2023-01-21T01:54:15.753Z,46.05
2023-01-21T01:55:15.787Z,46.02
2023-01-21T01:56:15.717Z,46.00
2023-01-21T01:57:16.564Z,45.94
2023-01-21T01:58:15.719Z,45.94
2023-01-21T01:59:15.688Z,45.93
2023-01-21T02:00:16.071Z,45.98
2023-01-21T02:01:15.646Z,45.96
2023-01-21T02:02:15.629Z,45.98
2023-01-21T02:03:15.673Z,45.96
2023-01-21T02:04:15.559Z,45.98
2023-01-21T02:05:15.538Z,45.98
2023-01-21T02:06:15.531Z,45.99
2023-01-21T02:07:15.508Z,45.96
2023-01-21T02:08:15.505Z,45.97
2023-01-21T03:27:15.592Z,45.41
2023-01-21T03:29:15.588Z,45.43
2023-01-21T04:48:15.608Z,45.08
2023-01-21T06:19:30.168Z,45.14
2023-01-21T06:20:30.171Z,45.08
2023-01-21T06:21:30.153Z,45.09
2023-01-21T06:22:30.156Z,45.03
2023-01-21T06:23:30.154Z,44.99
2023-01-21T06:24:30.155Z,44.96
2023-01-21T06:25:30.162Z,44.93
2023-01-21T06:26:30.173Z,44.90
2023-01-21T06:27:30.176Z,44.92
2023-01-21T06:28:30.182Z,44.90
2023-01-21T06:29:30.169Z,44.89
2023-01-21T06:30:30.176Z,44.93
2023-01-21T06:31:30.279Z,44.92
2023-01-21T06:32:30.184Z,44.92
2023-01-21T06:33:30.200Z,44.94
2023-01-21T06:34:30.194Z,44.95
2023-01-21T06:35:30.202Z,44.99
2023-01-21T06:36:30.216Z,44.94
2023-01-21T06:37:30.233Z,44.95
2023-01-21T06:38:30.240Z,44.95
2023-01-21T06:39:30.237Z,44.97
2023-01-21T06:40:30.240Z,44.95
2023-01-21T06:41:30.253Z,44.93
2023-01-21T06:42:30.254Z,44.91
2023-01-21T06:43:30.266Z,44.92
2023-01-21T06:44:30.243Z,44.88
2023-01-21T06:45:30.248Z,44.83
2023-01-21T06:46:30.305Z,44.81
2023-01-21T06:47:30.259Z,44.88
2023-01-21T06:48:30.275Z,44.90
2023-01-21T06:49:30.281Z,44.90
2023-01-21T06:50:30.280Z,44.90
2023-01-21T06:51:30.300Z,44.92
2023-01-21T06:52:30.290Z,44.90
2023-01-21T06:53:30.308Z,44.93
2023-01-21T06:54:30.641Z,44.96
2023-01-21T06:55:30.302Z,44.95
2023-01-21T06:56:30.308Z,44.97
2023-01-21T06:57:31.304Z,44.96
2023-01-21T06:58:30.329Z,44.89
2023-01-21T06:59:30.327Z,44.88
2023-01-21T07:00:30.352Z,44.87
2023-01-21T07:01:32.568Z,44.89
2023-01-21T07:02:30.357Z,44.90
2023-01-21T07:03:30.345Z,44.93
2023-01-21T07:04:30.375Z,44.99
2023-01-21T07:05:30.392Z,44.97
2023-01-21T07:06:30.416Z,44.98
2023-01-21T07:07:30.445Z,45.01
2023-01-21T07:08:30.468Z,44.98
2023-01-21T07:09:30.497Z,44.97
2023-01-21T07:10:30.513Z,44.95
2023-01-21T07:11:30.557Z,44.99
2023-01-21T07:12:30.559Z,44.95
2023-01-21T07:13:30.588Z,44.98
2023-01-21T07:14:30.627Z,45.01
2023-01-21T07:15:30.649Z,45.00
2023-01-21T07:16:30.697Z,45.02
2023-01-21T07:17:30.697Z,45.02
2023-01-21T07:18:30.733Z,45.04
2023-01-21T07:19:30.761Z,45.04
2023-01-21T07:20:30.800Z,45.07
2023-01-21T07:21:30.840Z,45.06
2023-01-21T07:22:30.886Z,45.09
2023-01-21T07:23:30.901Z,45.08
2023-01-21T07:24:30.922Z,45.07
2023-01-21T07:25:30.953Z,45.07
2023-01-21T07:26:30.989Z,45.05
2023-01-21T07:27:31.070Z,45.07
2023-01-21T07:28:31.048Z,45.07
2023-01-21T07:29:31.072Z,45.06
2023-01-21T07:30:31.094Z,45.03
2023-01-21T07:31:31.211Z,45.03
2023-01-21T07:32:31.160Z,45.05
2023-01-21T07:33:31.199Z,45.04
2023-01-21T07:34:31.239Z,45.02
2023-01-21T07:35:31.256Z,45.01
2023-01-21T07:36:31.290Z,44.99
2023-01-21T07:37:31.317Z,45.04
2023-01-21T07:38:31.351Z,45.03
2023-01-21T07:39:31.369Z,45.03
2023-01-21T07:40:31.423Z,45.03
2023-01-21T07:41:31.426Z,45.02
2023-01-21T07:42:31.447Z,45.01
2023-01-21T07:43:31.473Z,45.05
2023-01-21T07:44:31.503Z,45.02
2023-01-21T07:45:31.856Z,45.08
2023-01-21T07:46:31.562Z,45.06
2023-01-21T07:47:31.600Z,45.08
2023-01-21T07:48:31.587Z,45.05
2023-01-21T07:49:31.625Z,45.05
2023-01-21T07:50:31.667Z,45.06
2023-01-21T07:51:31.693Z,45.05
2023-01-21T07:52:31.730Z,45.03
2023-01-21T07:53:31.755Z,45.08
2023-01-21T07:54:31.762Z,45.09
2023-01-21T07:55:31.889Z,45.12
2023-01-21T07:56:31.862Z,45.09
2023-01-21T07:57:31.871Z,45.08
2023-01-21T07:58:31.906Z,45.08
2023-01-21T07:59:31.910Z,45.10
2023-01-21T08:00:31.931Z,45.10
2023-01-21T08:01:31.972Z,45.14
2023-01-21T08:02:32.138Z,45.12
2023-01-21T08:03:32.006Z,45.15
2023-01-21T08:04:32.043Z,45.13
2023-01-21T08:05:32.070Z,45.12
2023-01-21T08:06:32.096Z,45.10
2023-01-21T08:07:32.114Z,45.08
2023-01-21T08:08:32.155Z,45.07
2023-01-21T08:09:32.193Z,45.09
2023-01-21T08:10:32.233Z,45.05
2023-01-21T08:11:32.259Z,45.02
2023-01-21T08:12:32.277Z,45.04
2023-01-21T08:13:32.302Z,45.07
2023-01-21T08:14:32.328Z,45.08
2023-01-21T08:15:32.350Z,45.03
2023-01-21T10:05:35.509Z,43.54
2023-01-21T10:06:35.532Z,43.55
2023-01-21T10:07:35.554Z,43.55
2023-01-21T10:08:35.574Z,43.52
2023-01-21T10:09:35.618Z,43.50
2023-01-21T10:10:35.631Z,43.50
2023-01-21T10:11:35.664Z,43.48
2023-01-21T10:12:35.716Z,43.48
2023-01-21T10:13:35.781Z,43.47
2023-01-21T10:14:35.756Z,43.48
2023-01-21T10:15:35.785Z,43.43
2023-01-21T10:16:35.909Z,43.38
2023-01-21T10:23:36.040Z,43.34
2023-01-21T10:24:36.067Z,43.31
2023-01-21T10:25:36.109Z,43.30
2023-01-21T10:26:36.137Z,43.32
2023-01-21T10:27:36.148Z,43.35
2023-01-21T10:28:36.181Z,43.33
2023-01-21T10:29:36.206Z,43.35
2023-01-21T10:30:36.345Z,43.31
2023-01-21T10:31:36.316Z,43.25
2023-01-21T10:32:36.265Z,43.27
2023-01-21T10:33:36.302Z,43.23
2023-01-21T10:34:36.327Z,43.22
2023-01-21T10:35:36.340Z,43.23
2023-01-21T10:36:36.378Z,43.30
2023-01-21T10:37:36.387Z,43.31
2023-01-21T10:38:36.418Z,43.27
2023-01-21T10:39:36.442Z,43.26
2023-01-21T10:40:36.485Z,43.24
2023-01-21T10:41:36.506Z,43.23
2023-01-21T10:42:36.540Z,43.20
2023-01-21T10:43:36.559Z,43.23
2023-01-21T10:44:36.598Z,43.27
2023-01-21T10:45:36.641Z,43.26
2023-01-21T10:46:36.653Z,43.25
2023-01-21T10:47:36.738Z,43.28
2023-01-21T10:48:36.732Z,43.23
2023-01-21T10:49:36.754Z,43.20
2023-01-21T10:50:36.794Z,43.22
2023-01-21T10:51:36.810Z,43.21
2023-01-21T10:52:36.838Z,43.17
2023-01-21T10:53:36.889Z,43.17
2023-01-21T10:54:36.908Z,43.14
2023-01-21T10:55:36.940Z,43.14
2023-01-21T10:56:36.972Z,43.10
2023-01-21T10:57:36.998Z,43.09
2023-01-21T10:58:37.035Z,43.07
2023-01-21T10:59:37.080Z,43.08
2023-01-21T11:00:37.103Z,43.08
2023-01-21T11:01:37.151Z,43.08
2023-01-21T11:02:37.167Z,43.02
2023-01-21T11:03:37.181Z,43.04
2023-01-21T11:04:37.228Z,43.07
2023-01-21T11:05:37.268Z,43.07
2023-01-21T11:06:37.283Z,43.05
2023-01-21T11:07:37.320Z,43.05
2023-01-21T11:08:37.368Z,43.01
2023-01-21T11:09:37.427Z,43.04
2023-01-21T11:10:37.416Z,43.01
2023-01-21T11:11:37.462Z,42.98
2023-01-21T11:12:37.497Z,42.99
2023-01-21T11:13:37.517Z,43.00
2023-01-21T11:14:37.542Z,43.03
2023-01-21T11:15:37.643Z,43.02
2023-01-21T11:16:37.616Z,43.02
2023-01-21T11:17:37.678Z,42.98
2023-01-21T11:18:37.701Z,42.90
2023-01-21T11:19:37.721Z,42.93
2023-01-21T11:20:37.762Z,42.91
2023-01-21T11:21:37.810Z,42.95
2023-01-21T11:22:37.840Z,42.93
2023-01-21T11:23:37.868Z,42.89
2023-01-21T11:24:37.919Z,42.89
2023-01-21T11:25:37.937Z,42.88
2023-01-21T11:26:37.977Z,42.87
2023-01-21T11:27:38.034Z,42.89
2023-01-21T11:28:38.035Z,42.88
2023-01-21T11:29:38.078Z,42.87
2023-01-21T11:30:50.780Z,42.85
2023-01-21T11:32:38.123Z,42.85
2023-01-21T11:33:38.131Z,42.86
2023-01-21T12:02:38.781Z,42.77
2023-01-21T12:03:38.836Z,42.74
2023-01-21T12:04:38.836Z,42.73
2023-01-21T12:05:38.867Z,42.72
2023-01-21T12:06:38.924Z,42.70
2023-01-21T12:07:38.951Z,42.69
2023-01-21T12:08:38.988Z,42.68
2023-01-21T12:09:39.029Z,42.62
2023-01-21T12:10:39.058Z,42.58
2023-01-21T12:11:39.092Z,42.59
2023-01-21T12:12:39.131Z,42.57
2023-01-21T12:13:39.159Z,42.58
2023-01-21T12:14:39.215Z,42.54
2023-01-21T12:15:39.261Z,42.52
2023-01-21T12:16:39.249Z,42.50
2023-01-21T12:17:40.200Z,42.51
2023-01-21T12:18:39.322Z,42.50
2023-01-21T12:19:39.354Z,42.54
2023-01-21T12:20:39.389Z,42.55
2023-01-21T12:21:39.433Z,42.53
2023-01-21T12:22:39.468Z,42.50
2023-01-21T12:23:39.521Z,42.49
2023-01-21T12:24:39.547Z,42.44
2023-01-21T12:25:39.581Z,42.42
2023-01-21T12:26:39.635Z,42.42
2023-01-21T12:27:39.649Z,42.41
2023-01-21T12:28:39.692Z,42.45
2023-01-21T12:29:39.727Z,42.42
2023-01-21T12:30:39.822Z,42.43
2023-01-21T12:31:39.848Z,42.42
2023-01-21T12:32:39.849Z,42.39
2023-01-21T12:33:39.904Z,42.36
2023-01-21T12:34:39.927Z,42.33
2023-01-21T12:35:39.964Z,42.33
2023-01-21T12:36:39.997Z,42.33
2023-01-21T12:37:40.031Z,42.34
2023-01-21T12:38:40.075Z,42.34
2023-01-21T12:39:40.123Z,42.33
2023-01-21T12:40:40.137Z,42.35
2023-01-21T12:41:40.163Z,42.33
2023-01-21T12:42:40.199Z,42.38
2023-01-21T12:43:41.377Z,42.37
2023-01-21T12:44:40.277Z,42.38
2023-01-21T12:45:40.317Z,42.38
2023-01-21T12:46:40.399Z,42.37
2023-01-21T12:47:40.399Z,42.33
2023-01-21T12:48:40.423Z,42.38
2023-01-21T12:49:40.470Z,42.36
2023-01-21T12:50:40.495Z,42.28
2023-01-21T12:51:40.548Z,42.26
2023-01-21T12:52:40.578Z,42.27
2023-01-21T12:53:40.603Z,42.27
2023-01-21T12:54:40.651Z,42.29
2023-01-21T12:55:40.676Z,42.25
2023-01-21T12:56:40.706Z,42.22
2023-01-21T12:57:40.743Z,42.21
2023-01-21T12:58:40.786Z,42.15
2023-01-21T12:59:40.812Z,42.10
2023-01-21T13:00:40.857Z,42.09
2023-01-21T13:01:40.891Z,42.12
2023-01-21T13:02:40.912Z,42.13
2023-01-21T13:04:40.959Z,42.16
2023-01-21T13:05:40.987Z,42.16
2023-01-21T13:06:53.154Z,42.18
2023-01-21T13:08:41.036Z,42.22
2023-01-21T13:09:41.055Z,42.19
2023-01-21T13:10:41.067Z,42.20
2023-01-21T13:11:41.070Z,42.19
2023-01-21T13:12:41.086Z,42.22
2023-01-21T13:13:41.087Z,42.15
2023-01-21T13:14:41.083Z,42.14
2023-01-21T13:15:41.093Z,42.14
2023-01-21T13:16:41.154Z,42.16
2023-01-21T13:18:41.105Z,42.18
2023-01-21T13:19:41.128Z,42.17
2023-01-21T13:20:41.117Z,42.18
2023-01-21T13:21:41.135Z,42.12
2023-01-21T13:22:41.130Z,42.08
2023-01-21T13:23:41.149Z,42.06
2023-01-21T13:24:41.133Z,42.07
2023-01-21T13:25:41.160Z,42.04
2023-01-21T13:26:41.162Z,41.99
2023-01-21T13:27:43.101Z,41.97
2023-01-21T13:28:41.165Z,41.97
2023-01-21T13:29:41.209Z,41.93
2023-01-21T13:30:41.266Z,41.90
2023-01-21T13:31:41.276Z,41.87
2023-01-21T13:32:41.187Z,41.89
2023-01-21T13:33:41.208Z,41.88
2023-01-21T13:34:41.192Z,41.83
2023-01-21T13:35:41.524Z,41.84
2023-01-21T13:36:41.208Z,41.85
2023-01-21T13:37:41.220Z,41.83
2023-01-21T13:38:41.235Z,41.82
2023-01-21T13:39:41.270Z,41.84
2023-01-21T13:40:41.256Z,41.82
2023-01-21T13:41:41.248Z,41.80
2023-01-21T13:42:41.256Z,41.83
2023-01-21T13:43:41.271Z,41.82
2023-01-21T13:44:41.261Z,41.87
2023-01-21T13:45:41.321Z,41.89
2023-01-21T13:46:41.273Z,41.85
2023-01-21T13:47:41.286Z,41.83
2023-01-21T13:48:41.301Z,41.84
2023-01-21T13:49:41.290Z,41.78
2023-01-21T13:50:41.313Z,41.76
2023-01-21T15:20:42.099Z,40.49
2023-01-21T15:21:42.069Z,40.45
2023-01-21T15:22:42.069Z,40.45
2023-01-21T15:23:42.078Z,40.44
2023-01-21T15:24:42.075Z,40.46
2023-01-21T15:25:42.075Z,40.43
2023-01-21T15:26:42.079Z,40.41
2023-01-21T15:27:42.084Z,40.40
2023-01-21T15:28:42.088Z,40.39
2023-01-21T15:29:42.079Z,40.37
2023-01-21T15:30:57.599Z,40.33
2023-01-21T15:32:42.076Z,40.33
2023-01-21T15:33:42.090Z,40.34
2023-01-21T15:34:42.103Z,40.31
2023-01-21T15:35:42.077Z,40.29
2023-01-21T15:36:42.075Z,40.31
2023-01-21T15:37:42.071Z,40.28
2023-01-21T15:38:42.061Z,40.28
2023-01-21T15:39:42.059Z,40.26
2023-01-21T15:40:42.055Z,40.27
2023-01-21T15:41:42.065Z,40.25
2023-01-21T15:42:42.049Z,40.24
2023-01-21T15:43:42.040Z,40.27
2023-01-21T15:44:42.041Z,40.24
2023-01-21T15:45:42.068Z,40.22
2023-01-21T15:46:42.037Z,40.22
2023-01-21T15:47:42.049Z,40.20
2023-01-21T15:48:42.684Z,40.18
2023-01-21T15:49:42.080Z,40.20
2023-01-21T15:50:42.029Z,40.20
2023-01-21T15:55:42.039Z,40.19
2023-01-21T19:10:45.536Z,40.15
2023-01-21T19:12:45.503Z,40.11
2023-01-21T19:13:45.531Z,40.15
2023-01-21T19:14:45.565Z,40.15
2023-01-21T19:15:45.635Z,40.12
2023-01-21T19:16:45.594Z,40.18
2023-01-21T19:17:45.619Z,40.15
2023-01-21T19:18:45.634Z,40.13
2023-01-21T19:19:45.651Z,40.13
2023-01-21T19:20:45.710Z,40.14
2023-01-21T19:21:45.701Z,40.17
2023-01-21T19:22:45.732Z,40.16
2023-01-21T19:23:45.751Z,40.17
2023-01-21T19:24:45.776Z,40.21
2023-01-21T19:25:45.789Z,40.22
2023-01-21T19:26:45.804Z,40.23
2023-01-21T19:27:45.857Z,40.23
2023-01-21T19:28:45.859Z,40.24
2023-01-21T19:29:45.878Z,40.25
2023-01-21T19:30:45.919Z,40.27
2023-01-21T19:31:46.077Z,40.23
2023-01-21T19:32:45.922Z,40.23
2023-01-21T19:33:45.953Z,40.21
2023-01-21T19:34:45.957Z,40.22
2023-01-21T19:35:45.982Z,40.19
2023-01-21T19:36:46.000Z,40.17
2023-01-21T19:37:46.011Z,40.21
2023-01-21T19:38:46.070Z,40.21
2023-01-21T19:39:46.063Z,40.18
2023-01-21T19:40:46.057Z,40.22
2023-01-21T19:41:46.110Z,40.25
2023-01-21T19:42:46.111Z,40.25
2023-01-21T19:43:46.139Z,40.28
2023-01-21T19:44:46.167Z,40.28
2023-01-21T19:45:46.197Z,40.36
2023-01-21T19:46:46.221Z,40.33
2023-01-21T19:47:46.221Z,40.33
2023-01-21T19:48:46.253Z,40.31
2023-01-21T19:49:46.271Z,40.32
2023-01-21T19:50:46.300Z,40.28
2023-01-21T19:51:46.300Z,40.30
2023-01-21T19:52:46.336Z,40.33
2023-01-21T19:53:46.344Z,40.30
2023-01-21T19:54:46.359Z,40.31
2023-01-21T19:55:46.489Z,40.35
2023-01-21T19:56:46.401Z,40.39
2023-01-21T19:57:46.404Z,40.43
2023-01-21T19:58:46.440Z,40.48
2023-01-21T19:59:46.472Z,40.50
2023-01-21T20:00:46.531Z,40.55
2023-01-21T20:01:46.533Z,40.53
2023-01-21T20:02:46.545Z,40.50
2023-01-21T20:03:59.272Z,40.54
2023-01-21T20:04:47.568Z,40.52
2023-01-21T20:05:46.572Z,40.50
2023-01-21T20:06:46.596Z,40.47
2023-01-21T20:07:46.553Z,40.45
2023-01-21T20:08:46.551Z,40.47
2023-01-21T20:09:46.569Z,40.47
2023-01-21T20:10:46.539Z,40.45
2023-01-21T20:11:46.553Z,40.42
2023-01-21T20:12:46.592Z,40.46
2023-01-21T20:13:46.568Z,40.51
2023-01-21T20:14:46.566Z,40.56
2023-01-21T20:15:46.568Z,40.56
2023-01-21T20:16:46.589Z,40.59
2023-01-21T20:17:46.587Z,40.66
2023-01-21T20:18:46.622Z,40.63
2023-01-21T20:19:46.603Z,40.68
2023-01-21T20:20:46.602Z,40.68
2023-01-21T20:22:00.472Z,40.67
2023-01-21T20:22:47.600Z,40.69
2023-01-21T20:23:46.602Z,40.65
2023-01-21T20:24:46.613Z,40.64
2023-01-21T20:25:46.598Z,40.62
2023-01-21T20:26:46.591Z,40.58
2023-01-21T20:27:46.599Z,40.60
2023-01-21T20:28:46.616Z,40.62
2023-01-21T20:29:55.617Z,40.65
2023-01-21T20:30:47.646Z,40.68
2023-01-21T20:31:46.677Z,40.74
2023-01-21T20:32:46.611Z,40.76
2023-01-21T20:33:46.605Z,40.74
2023-01-21T20:34:46.624Z,40.75
2023-01-21T20:35:46.617Z,40.77
2023-01-21T20:36:46.627Z,40.76
2023-01-21T20:37:46.622Z,40.74
2023-01-21T20:38:46.652Z,40.77
2023-01-21T20:39:46.639Z,40.77
2023-01-21T20:40:46.642Z,40.76
2023-01-21T20:41:46.651Z,40.76
2023-01-21T20:42:46.651Z,40.77
2023-01-21T20:43:46.680Z,40.79
2023-01-21T20:44:46.648Z,40.76
2023-01-21T20:45:46.688Z,40.77
2023-01-21T20:46:46.658Z,40.79
2023-01-21T20:47:49.999Z,40.84
2023-01-21T20:48:46.677Z,40.84
2023-01-21T20:49:46.649Z,40.85
2023-01-21T20:50:46.738Z,40.87
2023-01-21T20:51:46.661Z,40.89
2023-01-21T20:52:46.672Z,40.83
2023-01-21T20:53:46.669Z,40.87
2023-01-21T20:54:46.669Z,40.85
2023-01-21T20:55:46.677Z,40.83
2023-01-21T20:56:46.671Z,40.88
2023-01-21T20:57:46.681Z,40.86
2023-01-21T20:58:46.670Z,40.87
2023-01-21T20:59:46.677Z,40.83
2023-01-21T21:00:46.767Z,40.87
2023-01-21T21:01:46.679Z,40.83
2023-01-21T21:02:46.687Z,40.85
2023-01-21T21:03:46.694Z,40.87
2023-01-21T21:04:46.683Z,40.89
2023-01-21T21:05:46.686Z,40.90
2023-01-21T21:06:46.686Z,40.91
2023-01-21T21:07:46.675Z,40.97
2023-01-21T21:08:46.679Z,40.99
2023-01-21T21:09:46.705Z,41.00
2023-01-21T21:10:46.683Z,41.01
2023-01-21T21:11:46.684Z,40.99
2023-01-21T21:12:46.698Z,40.99
2023-01-21T21:28:46.718Z,41.03
2023-01-21T21:29:46.703Z,41.03
2023-01-21T21:30:46.757Z,41.00
2023-01-21T21:31:46.704Z,40.96
2023-01-21T21:32:46.704Z,40.96
2023-01-21T21:33:46.708Z,40.95
2023-01-21T21:34:46.705Z,40.95
2023-01-21T21:35:46.922Z,40.96
2023-01-21T21:36:46.722Z,40.99
2023-01-21T21:37:46.728Z,41.01
2023-01-21T21:38:46.728Z,41.05
2023-01-21T21:39:46.734Z,41.04
2023-01-21T21:40:46.767Z,41.05
2023-01-21T21:41:46.824Z,41.07
2023-01-21T21:42:46.847Z,41.04
2023-01-21T21:43:46.875Z,41.12
2023-01-21T21:44:46.899Z,41.10
2023-01-21T21:45:46.986Z,41.11
2023-01-21T21:46:46.987Z,41.10
2023-01-21T21:47:47.033Z,41.12
2023-01-21T21:48:47.042Z,41.07
2023-01-21T21:49:47.077Z,41.05
2023-01-21T21:50:47.165Z,41.05
2023-01-21T21:51:47.140Z,41.07
2023-01-21T21:52:47.179Z,41.04
2023-01-21T21:53:47.207Z,41.06
2023-01-21T21:54:47.237Z,41.08
2023-01-21T21:55:47.283Z,41.07
2023-01-21T21:56:47.318Z,41.09
2023-01-21T21:57:47.359Z,41.06
2023-01-21T21:58:47.407Z,41.06
2023-01-21T21:59:47.439Z,41.07
2023-01-21T22:00:47.506Z,41.08
2023-01-21T22:01:47.524Z,41.08
2023-01-21T22:02:47.550Z,41.11
2023-01-21T22:03:47.596Z,41.12
2023-01-21T22:04:47.637Z,41.12
2023-01-21T22:05:47.677Z,41.10
2023-01-21T22:06:47.721Z,41.09
2023-01-21T22:07:47.761Z,41.03
2023-01-21T22:08:47.782Z,41.06
2023-01-21T22:09:47.827Z,41.09
2023-01-21T22:10:47.868Z,41.08
2023-01-21T22:11:47.919Z,41.13
2023-01-21T22:12:47.968Z,41.14
2023-01-21T22:13:49.873Z,41.17
2023-01-21T22:14:48.060Z,41.17
2023-01-21T22:15:48.094Z,41.20
2023-01-21T22:16:48.237Z,41.18
2023-01-21T22:17:48.191Z,41.17
2023-01-21T22:18:48.223Z,41.14
2023-01-21T22:19:48.273Z,41.16
2023-01-21T22:20:48.312Z,41.17
2023-01-21T22:21:48.349Z,41.13
2023-01-21T22:22:48.418Z,41.16
2023-01-21T22:23:48.430Z,41.14
2023-01-21T22:24:48.462Z,41.12
2023-01-21T22:25:48.518Z,41.11
2023-01-21T22:26:48.558Z,41.11
2023-01-21T22:27:48.676Z,41.13
2023-01-21T22:28:48.619Z,41.08
2023-01-21T22:29:48.651Z,41.11
2023-01-21T22:30:48.769Z,41.10
2023-01-21T22:31:48.827Z,41.12
2023-01-21T22:32:48.772Z,41.17
2023-01-21T22:33:48.809Z,41.15
2023-01-21T22:34:48.839Z,41.14
2023-01-21T22:35:48.902Z,41.18
2023-01-21T22:36:48.930Z,41.17
2023-01-21T22:37:48.973Z,41.22
2023-01-21T22:38:49.026Z,41.25
2023-01-21T22:39:49.046Z,41.24
2023-01-21T22:40:49.110Z,41.26
2023-01-21T22:41:49.146Z,41.22
2023-01-21T22:42:49.174Z,41.24
2023-01-21T22:43:49.219Z,41.23
2023-01-21T22:44:49.264Z,41.24
2023-01-21T22:45:49.360Z,41.26
2023-01-21T22:46:49.352Z,41.23
2023-01-21T22:47:49.371Z,41.24
2023-01-21T22:48:49.422Z,41.17
2023-01-21T22:49:49.468Z,41.17
2023-01-21T22:50:49.557Z,41.16
2023-01-21T22:51:49.547Z,41.15
2023-01-21T22:52:49.583Z,41.13
2023-01-21T22:53:49.632Z,41.12
2023-01-21T22:54:50.232Z,41.14
2023-01-21T22:55:49.711Z,41.13
2023-01-21T22:56:52.431Z,41.14
2023-01-21T22:57:49.777Z,41.13
2023-01-21T22:58:49.762Z,41.17
2023-01-21T22:59:49.787Z,41.18
2023-01-21T23:00:49.769Z,41.20
2023-01-21T23:01:49.784Z,41.23
2023-01-21T23:02:49.786Z,41.26
2023-01-21T23:03:49.803Z,41.20
2023-01-21T23:04:49.837Z,41.23
2023-01-21T23:05:49.811Z,41.24
2023-01-21T23:06:49.810Z,41.24
2023-01-21T23:07:49.804Z,41.24
2023-01-21T23:08:49.830Z,41.21
2023-01-21T23:09:49.823Z,41.21
2023-01-21T23:10:49.831Z,41.21
2023-01-21T23:11:49.831Z,41.18
2023-01-21T23:12:49.839Z,41.21
2023-01-21T23:13:49.844Z,41.22
2023-01-21T23:14:49.837Z,41.21
2023-01-21T23:15:49.888Z,41.19
2023-01-21T23:16:49.851Z,41.21
2023-01-21T23:17:49.830Z,41.19
2023-01-21T23:18:49.852Z,41.23
2023-01-21T23:19:49.850Z,41.23
2023-01-21T23:20:49.854Z,41.24
2023-01-21T23:21:49.875Z,41.24
2023-01-21T23:22:49.869Z,41.23
2023-01-21T23:23:49.864Z,41.21
2023-01-21T23:24:49.866Z,41.20
2023-01-21T23:25:49.879Z,41.15
2023-01-21T23:26:49.884Z,41.21
2023-01-21T23:27:49.874Z,41.17
2023-01-21T23:28:49.881Z,41.17
2023-01-21T23:29:49.886Z,41.19
2023-01-21T23:30:49.973Z,41.22
2023-01-21T23:31:50.027Z,41.22
2023-01-21T23:32:49.910Z,41.24
2023-01-21T23:33:49.896Z,41.23
2023-01-21T23:34:49.903Z,41.25
2023-01-21T23:35:49.912Z,41.27
2023-01-21T23:36:49.915Z,41.25
2023-01-21T23:37:49.911Z,41.26
2023-01-21T23:38:49.918Z,41.28
2023-01-21T23:39:49.912Z,41.30
2023-01-21T23:40:49.910Z,41.32
2023-01-21T23:41:49.930Z,41.28
2023-01-21T23:42:49.937Z,41.25
2023-01-21T23:43:49.950Z,41.28
2023-01-21T23:44:49.942Z,41.24
2023-01-21T23:45:49.989Z,41.20
2023-01-21T23:46:49.949Z,41.15
2023-01-21T23:47:49.954Z,41.16
2023-01-21T23:48:49.980Z,41.12
2023-01-21T23:49:49.964Z,41.21
2023-01-21T23:50:50.031Z,41.24
2023-01-21T23:51:49.998Z,41.24
2023-01-21T23:52:49.980Z,41.23
2023-01-21T23:53:49.987Z,41.23
2023-01-21T23:54:49.997Z,41.24
2023-01-21T23:55:50.045Z,41.26
2023-01-21T23:56:50.102Z,41.24
2023-01-21T23:57:50.143Z,41.24
2023-01-21T23:58:50.204Z,41.25
2023-01-21T23:59:50.245Z,41.19
